sensor_id;sensor_type;location;lat;lon;timestamp;pressure;altitude;pressure_sealevel;temperature;humidity
41573;BME280;27286;47.870;19.006;2022-12-29T00:01:35;99945.44;;;-3.59;100.00
41573;BME280;27286;47.870;19.006;2022-12-29T00:04:01;99946.31;;;-3.58;100.00
41573;BME280;27286;47.870;19.006;2022-12-29T00:06:27;99949.75;;;-3.56;100.00
41573;BME280;27286;47.870;19.006;2022-12-29T00:08:53;99948.06;;;-3.56;100.00
41573;BME280;27286;47.870;19.006;2022-12-29T00:11:20;99942.06;;;-3.58;100.00
41573;BME280;27286;47.870;19.006;2022-12-29T00:13:47;99931.84;;;-3.59;100.00
41573;BME280;27286;47.870;19.006;2022-12-29T00:16:32;99945.75;;;-3.45;100.00
41573;BME280;27286;47.870;19.006;2022-12-29T00:18:58;99939.25;;;-3.34;100.00
41573;BME280;27286;47.870;19.006;2022-12-29T00:21:24;99939.38;;;-3.28;100.00
41573;BME280;27286;47.870;19.006;2022-12-29T00:24:17;99941.91;;;-3.28;100.00
41573;BME280;27286;47.870;19.006;2022-12-29T00:29:50;99939.44;;;-3.25;100.00
41573;BME280;27286;47.870;19.006;2022-12-29T00:32:34;99937.78;;;-3.23;100.00
41573;BME280;27286;47.870;19.006;2022-12-29T00:35:39;99932.84;;;-3.17;100.00
41573;BME280;27286;47.870;19.006;2022-12-29T00:38:07;99922.75;;;-3.12;100.00
41573;BME280;27286;47.870;19.006;2022-12-29T00:40:51;99923.63;;;-3.10;100.00
41573;BME280;27286;47.870;19.006;2022-12-29T00:43:35;99925.31;;;-3.11;100.00
41573;BME280;27286;47.870;19.006;2022-12-29T00:46:19;99921.00;;;-3.15;100.00
41573;BME280;27286;47.870;19.006;2022-12-29T00:48:45;99923.59;;;-3.12;100.00
41573;BME280;27286;47.870;19.006;2022-12-29T00:51:29;99935.41;;;-3.15;100.00
41573;BME280;27286;47.870;19.006;2022-12-29T00:53:55;99941.44;;;-3.12;100.00
41573;BME280;27286;47.870;19.006;2022-12-29T00:56:20;99940.69;;;-3.06;100.00
41573;BME280;27286;47.870;19.006;2022-12-29T00:58:45;99939.97;;;-3.00;100.00
41573;BME280;27286;47.870;19.006;2022-12-29T01:01:11;99936.59;;;-2.99;100.00
41573;BME280;27286;47.870;19.006;2022-12-29T01:03:37;99942.56;;;-2.99;100.00
41573;BME280;27286;47.870;19.006;2022-12-29T01:06:05;99939.16;;;-2.99;100.00
41573;BME280;27286;47.870;19.006;2022-12-29T01:08:31;99934.69;;;-3.08;100.00
41573;BME280;27286;47.870;19.006;2022-12-29T01:11:05;99942.44;;;-3.04;100.00
41573;BME280;27286;47.870;19.006;2022-12-29T01:13:31;99943.28;;;-3.03;100.00
41573;BME280;27286;47.870;19.006;2022-12-29T01:15:56;99956.19;;;-2.97;100.00
41573;BME280;27286;47.870;19.006;2022-12-29T01:18:22;99953.66;;;-2.95;100.00
41573;BME280;27286;47.870;19.006;2022-12-29T01:20:49;99938.38;;;-2.95;100.00
41573;BME280;27286;47.870;19.006;2022-12-29T01:23:14;99945.19;;;-2.94;100.00
41573;BME280;27286;47.870;19.006;2022-12-29T01:25:40;99946.84;;;-2.96;100.00
41573;BME280;27286;47.870;19.006;2022-12-29T01:28:05;99949.34;;;-2.99;100.00
41573;BME280;27286;47.870;19.006;2022-12-29T01:30:34;99948.34;;;-3.05;100.00
41573;BME280;27286;47.870;19.006;2022-12-29T01:32:59;99935.63;;;-3.05;100.00
41573;BME280;27286;47.870;19.006;2022-12-29T01:35:25;99931.41;;;-3.03;100.00
41573;BME280;27286;47.870;19.006;2022-12-29T01:37:50;99931.41;;;-3.03;100.00
41573;BME280;27286;47.870;19.006;2022-12-29T01:40:16;99927.28;;;-2.99;100.00
41573;BME280;27286;47.870;19.006;2022-12-29T01:42:41;99924.72;;;-2.99;100.00
41573;BME280;27286;47.870;19.006;2022-12-29T01:45:12;99929.06;;;-2.93;100.00
41573;BME280;27286;47.870;19.006;2022-12-29T01:47:58;99928.19;;;-2.95;100.00
41573;BME280;27286;47.870;19.006;2022-12-29T01:50:43;99939.16;;;-2.99;100.00
41573;BME280;27286;47.870;19.006;2022-12-29T01:55:51;99929.06;;;-2.93;100.00
41573;BME280;27286;47.870;19.006;2022-12-29T01:58:19;99920.84;;;-2.82;100.00
41573;BME280;27286;47.870;19.006;2022-12-29T02:00:46;99920.25;;;-2.68;100.00
41573;BME280;27286;47.870;19.006;2022-12-29T02:03:12;99913.53;;;-2.65;100.00
41573;BME280;27286;47.870;19.006;2022-12-29T02:05:47;99906.75;;;-2.63;100.00
41573;BME280;27286;47.870;19.006;2022-12-29T02:08:15;99914.41;;;-2.63;100.00
41573;BME280;27286;47.870;19.006;2022-12-29T02:10:41;99898.09;;;-2.71;100.00
41573;BME280;27286;47.870;19.006;2022-12-29T02:13:08;99903.28;;;-2.68;100.00
41573;BME280;27286;47.870;19.006;2022-12-29T02:18:53;99900.72;;;-2.68;100.00
41573;BME280;27286;47.870;19.006;2022-12-29T02:22:02;99901.41;;;-2.75;100.00
41573;BME280;27286;47.870;19.006;2022-12-29T02:33:40;99888.19;;;-2.99;100.00
41573;BME280;27286;47.870;19.006;2022-12-29T02:39:04;99876.47;;;-2.91;100.00
41573;BME280;27286;47.870;19.006;2022-12-29T02:41:48;99873.13;;;-2.89;100.00
41573;BME280;27286;47.870;19.006;2022-12-29T02:48:04;99885.97;;;-2.84;100.00
41573;BME280;27286;47.870;19.006;2022-12-29T02:50:11;99890.16;;;-2.86;100.00
41573;BME280;27286;47.870;19.006;2022-12-29T02:52:51;99884.97;;;-2.91;100.00
41573;BME280;27286;47.870;19.006;2022-12-29T02:55:19;99875.56;;;-2.93;100.00
41573;BME280;27286;47.870;19.006;2022-12-29T02:57:45;99878.00;;;-2.99;100.00
41573;BME280;27286;47.870;19.006;2022-12-29T03:00:14;99880.63;;;-2.96;100.00
41573;BME280;27286;47.870;19.006;2022-12-29T03:08:19;99877.25;;;-2.95;100.00
41573;BME280;27286;47.870;19.006;2022-12-29T03:18:56;99873.66;;;-3.04;100.00
41573;BME280;27286;47.870;19.006;2022-12-29T03:21:44;99860.81;;;-3.10;100.00
41573;BME280;27286;47.870;19.006;2022-12-29T03:24:44;99859.94;;;-3.12;100.00
41573;BME280;27286;47.870;19.006;2022-12-29T03:27:15;99860.00;;;-3.07;100.00
41573;BME280;27286;47.870;19.006;2022-12-29T03:29:46;99871.91;;;-3.08;100.00
41573;BME280;27286;47.870;19.006;2022-12-29T03:32:13;99875.16;;;-3.15;100.00
41573;BME280;27286;47.870;19.006;2022-12-29T03:34:40;99869.06;;;-3.21;100.00
41573;BME280;27286;47.870;19.006;2022-12-29T03:37:13;99865.69;;;-3.20;100.00
41573;BME280;27286;47.870;19.006;2022-12-29T03:39:40;99871.78;;;-3.14;100.00
41573;BME280;27286;47.870;19.006;2022-12-29T03:42:11;99867.63;;;-3.09;100.00
41573;BME280;27286;47.870;19.006;2022-12-29T03:44:40;99860.81;;;-3.10;100.00
41573;BME280;27286;47.870;19.006;2022-12-29T03:47:07;99859.19;;;-3.06;100.00
41573;BME280;27286;47.870;19.006;2022-12-29T03:49:33;99858.31;;;-3.07;100.00
41573;BME280;27286;47.870;19.006;2022-12-29T03:51:58;99849.09;;;-3.01;100.00
41573;BME280;27286;47.870;19.006;2022-12-29T03:54:24;99846.66;;;-2.95;100.00
41573;BME280;27286;47.870;19.006;2022-12-29T03:56:49;99856.13;;;-2.90;100.00
41573;BME280;27286;47.870;19.006;2022-12-29T03:59:15;99853.69;;;-2.85;100.00
41573;BME280;27286;47.870;19.006;2022-12-29T04:01:40;99841.84;;;-2.82;100.00
41573;BME280;27286;47.870;19.006;2022-12-29T04:04:06;99841.03;;;-2.79;100.00
41573;BME280;27286;47.870;19.006;2022-12-29T04:06:31;99835.97;;;-2.78;100.00
41573;BME280;27286;47.870;19.006;2022-12-29T04:08:57;99839.41;;;-2.76;100.00
41573;BME280;27286;47.870;19.006;2022-12-29T04:11:22;99842.03;;;-2.71;100.00
41573;BME280;27286;47.870;19.006;2022-12-29T04:13:48;99840.44;;;-2.66;100.00
41573;BME280;27286;47.870;19.006;2022-12-29T04:16:14;99838.72;;;-2.67;100.00
41573;BME280;27286;47.870;19.006;2022-12-29T04:18:39;99852.31;;;-2.68;100.00
41573;BME280;27286;47.870;19.006;2022-12-29T04:21:05;99842.03;;;-2.71;100.00
41573;BME280;27286;47.870;19.006;2022-12-29T04:23:33;99842.91;;;-2.69;100.00
41573;BME280;27286;47.870;19.006;2022-12-29T04:25:58;99842.88;;;-2.70;100.00
41573;BME280;27286;47.870;19.006;2022-12-29T04:28:24;99842.09;;;-2.68;100.00
41573;BME280;27286;47.870;19.006;2022-12-29T04:30:50;99826.88;;;-2.65;100.00
41573;BME280;27286;47.870;19.006;2022-12-29T04:33:16;99851.75;;;-2.52;100.00
41573;BME280;27286;47.870;19.006;2022-12-29T04:35:42;99855.16;;;-2.51;100.00
41573;BME280;27286;47.870;19.006;2022-12-29T04:38:08;99846.59;;;-2.53;100.00
41573;BME280;27286;47.870;19.006;2022-12-29T04:40:33;99843.16;;;-2.55;100.00
41573;BME280;27286;47.870;19.006;2022-12-29T04:42:59;99843.13;;;-2.57;100.00
41573;BME280;27286;47.870;19.006;2022-12-29T04:45:24;99849.06;;;-2.58;100.00
41573;BME280;27286;47.870;19.006;2022-12-29T04:47:50;99832.84;;;-2.63;100.00
41573;BME280;27286;47.870;19.006;2022-12-29T04:50:15;99840.50;;;-2.63;100.00
41573;BME280;27286;47.870;19.006;2022-12-29T04:52:41;99838.78;;;-2.64;100.00
41573;BME280;27286;47.870;19.006;2022-12-29T04:55:06;99840.34;;;-2.69;100.00
41573;BME280;27286;47.870;19.006;2022-12-29T04:57:32;99842.03;;;-2.71;100.00
41573;BME280;27286;47.870;19.006;2022-12-29T04:59:58;99829.19;;;-2.77;100.00
41573;BME280;27286;47.870;19.006;2022-12-29T05:02:23;99847.22;;;-2.68;100.00
41573;BME280;27286;47.870;19.006;2022-12-29T05:04:49;99856.66;;;-2.61;100.00
41573;BME280;27286;47.870;19.006;2022-12-29T05:07:15;99866.13;;;-2.54;100.00
41573;BME280;27286;47.870;19.006;2022-12-29T05:09:40;99858.59;;;-2.49;100.00
41573;BME280;27286;47.870;19.006;2022-12-29T05:12:06;99858.72;;;-2.40;100.00
41573;BME280;27286;47.870;19.006;2022-12-29T05:14:31;99857.09;;;-2.36;100.00
41573;BME280;27286;47.870;19.006;2022-12-29T05:16:57;99852.03;;;-2.35;100.00
41573;BME280;27286;47.870;19.006;2022-12-29T05:19:22;99852.81;;;-2.37;100.00
41573;BME280;27286;47.870;19.006;2022-12-29T05:21:48;99844.28;;;-2.41;100.00
41573;BME280;27286;47.870;19.006;2022-12-29T05:24:13;99856.16;;;-2.42;100.00
41573;BME280;27286;47.870;19.006;2022-12-29T05:26:40;99851.91;;;-2.41;100.00
41573;BME280;27286;47.870;19.006;2022-12-29T05:29:05;99844.28;;;-2.41;100.00
41573;BME280;27286;47.870;19.006;2022-12-29T05:31:31;99843.31;;;-2.48;100.00
41573;BME280;27286;47.870;19.006;2022-12-29T05:33:56;99835.50;;;-2.55;100.00
41573;BME280;27286;47.870;19.006;2022-12-29T05:36:22;99841.44;;;-2.56;100.00
41573;BME280;27286;47.870;19.006;2022-12-29T05:38:47;99843.00;;;-2.66;100.00
41573;BME280;27286;47.870;19.006;2022-12-29T05:41:12;99837.78;;;-2.70;100.00
41573;BME280;27286;47.870;19.006;2022-12-29T05:43:38;99838.59;;;-2.73;100.00
41573;BME280;27286;47.870;19.006;2022-12-29T05:46:03;99835.13;;;-2.78;100.00
41573;BME280;27286;47.870;19.006;2022-12-29T05:48:29;99837.56;;;-2.84;100.00
41573;BME280;27286;47.870;19.006;2022-12-29T05:50:55;99845.06;;;-2.90;100.00
41573;BME280;27286;47.870;19.006;2022-12-29T05:53:20;99830.53;;;-2.96;100.00
41573;BME280;27286;47.870;19.006;2022-12-29T05:55:47;99835.53;;;-3.00;100.00
41573;BME280;27286;47.870;19.006;2022-12-29T05:58:13;99841.47;;;-3.01;100.00
41573;BME280;27286;47.870;19.006;2022-12-29T06:00:38;99838.88;;;-3.03;100.00
41573;BME280;27286;47.870;19.006;2022-12-29T06:03:04;99845.66;;;-3.04;100.00
41573;BME280;27286;47.870;19.006;2022-12-29T06:05:30;99842.16;;;-3.09;100.00
41573;BME280;27286;47.870;19.006;2022-12-29T06:07:55;99834.41;;;-3.15;100.00
41573;BME280;27286;47.870;19.006;2022-12-29T06:10:21;99832.56;;;-3.22;100.00
41573;BME280;27286;47.870;19.006;2022-12-29T06:12:46;99829.88;;;-3.29;100.00
41573;BME280;27286;47.870;19.006;2022-12-29T06:15:12;99827.38;;;-3.26;100.00
41573;BME280;27286;47.870;19.006;2022-12-29T06:17:38;99812.13;;;-3.25;100.00
41573;BME280;27286;47.870;19.006;2022-12-29T06:20:04;99823.31;;;-3.18;100.00
41573;BME280;27286;47.870;19.006;2022-12-29T06:22:29;99829.13;;;-3.24;100.00
41573;BME280;27286;47.870;19.006;2022-12-29T06:24:55;99836.72;;;-3.25;100.00
41573;BME280;27286;47.870;19.006;2022-12-29T06:27:20;99830.66;;;-3.32;100.00
41573;BME280;27286;47.870;19.006;2022-12-29T06:29:45;99834.03;;;-3.33;100.00
41573;BME280;27286;47.870;19.006;2022-12-29T06:32:11;99833.09;;;-3.37;100.00
41573;BME280;27286;47.870;19.006;2022-12-29T06:34:37;99839.81;;;-3.40;100.00
41573;BME280;27286;47.870;19.006;2022-12-29T06:37:02;99830.34;;;-3.47;100.00
41573;BME280;27286;47.870;19.006;2022-12-29T06:39:28;99838.78;;;-3.50;100.00
41573;BME280;27286;47.870;19.006;2022-12-29T06:41:54;99839.63;;;-3.49;100.00
41573;BME280;27286;47.870;19.006;2022-12-29T06:44:22;99837.13;;;-3.48;100.00
41573;BME280;27286;47.870;19.006;2022-12-29T06:46:48;99853.47;;;-3.37;100.00
41573;BME280;27286;47.870;19.006;2022-12-29T06:49:14;99855.28;;;-3.31;100.00
41573;BME280;27286;47.870;19.006;2022-12-29T06:51:39;99854.53;;;-3.27;100.00
41573;BME280;27286;47.870;19.006;2022-12-29T06:54:05;99848.63;;;-3.24;100.00
41573;BME280;27286;47.870;19.006;2022-12-29T06:56:31;99845.22;;;-3.25;100.00
41573;BME280;27286;47.870;19.006;2022-12-29T06:58:58;99854.72;;;-3.18;100.00
41573;BME280;27286;47.870;19.006;2022-12-29T07:01:25;99849.78;;;-3.10;100.00
41573;BME280;27286;47.870;19.006;2022-12-29T07:03:51;99853.38;;;-3.00;100.00
41573;BME280;27286;47.870;19.006;2022-12-29T07:06:16;99855.19;;;-2.93;100.00
41573;BME280;27286;47.870;19.006;2022-12-29T07:08:42;99854.53;;;-2.85;100.00
41573;BME280;27286;47.870;19.006;2022-12-29T07:11:07;99864.88;;;-2.76;100.00
41573;BME280;27286;47.870;19.006;2022-12-29T07:13:33;99861.56;;;-2.72;100.00
41573;BME280;27286;47.870;19.006;2022-12-29T07:15:59;99870.94;;;-2.69;100.00
41573;BME280;27286;47.870;19.006;2022-12-29T07:18:24;99867.66;;;-2.65;100.00
41573;BME280;27286;47.870;19.006;2022-12-29T07:20:49;99872.06;;;-2.55;100.00
41573;BME280;27286;47.870;19.006;2022-12-29T07:23:15;99860.34;;;-2.45;100.00
41573;BME280;27286;47.870;19.006;2022-12-29T07:25:40;99874.34;;;-2.22;100.00
41573;BME280;27286;47.870;19.006;2022-12-29T07:28:06;99875.63;;;-1.97;99.29
41573;BME280;27286;47.870;19.006;2022-12-29T07:30:32;99874.31;;;-1.70;98.02
41573;BME280;27286;47.870;19.006;2022-12-29T07:32:57;99870.28;;;-1.56;96.53
41573;BME280;27286;47.870;19.006;2022-12-29T07:35:23;99866.16;;;-1.46;95.69
41573;BME280;27286;47.870;19.006;2022-12-29T07:37:48;99872.16;;;-1.44;95.41
41573;BME280;27286;47.870;19.006;2022-12-29T07:40:14;99879.03;;;-1.39;95.46
41573;BME280;27286;47.870;19.006;2022-12-29T07:42:40;99865.53;;;-1.30;95.45
41573;BME280;27286;47.870;19.006;2022-12-29T07:45:05;99860.66;;;-1.12;95.31
41573;BME280;27286;47.870;19.006;2022-12-29T07:47:31;99869.41;;;-0.95;94.92
41573;BME280;27286;47.870;19.006;2022-12-29T07:49:57;99868.75;;;-0.75;94.00
41573;BME280;27286;47.870;19.006;2022-12-29T07:52:22;99869.97;;;-0.43;93.09
41573;BME280;27286;47.870;19.006;2022-12-29T07:54:47;99867.69;;;-0.11;91.91
41573;BME280;27286;47.870;19.006;2022-12-29T07:57:13;99872.34;;;0.35;90.59
41573;BME280;27286;47.870;19.006;2022-12-29T07:59:38;99863.16;;;0.75;88.38
41573;BME280;27286;47.870;19.006;2022-12-29T08:02:04;99859.88;;;1.03;87.06
41573;BME280;27286;47.870;19.006;2022-12-29T08:04:29;99855.56;;;0.90;86.45
41573;BME280;27286;47.870;19.006;2022-12-29T08:06:54;99861.53;;;0.95;86.92
41573;BME280;27286;47.870;19.006;2022-12-29T08:09:20;99858.25;;;1.22;87.36
41573;BME280;27286;47.870;19.006;2022-12-29T08:11:45;99856.53;;;1.24;86.69
41573;BME280;27286;47.870;19.006;2022-12-29T08:14:11;99866.75;;;1.10;88.06
41573;BME280;27286;47.870;19.006;2022-12-29T08:16:36;99866.72;;;1.04;88.79
41573;BME280;27286;47.870;19.006;2022-12-29T08:19:02;99870.09;;;1.00;88.11
41573;BME280;27286;47.870;19.006;2022-12-29T08:21:29;99868.41;;;1.01;88.20
41573;BME280;27286;47.870;19.006;2022-12-29T08:23:54;99865.03;;;1.05;88.63
41573;BME280;27286;47.870;19.006;2022-12-29T08:26:20;99864.16;;;1.07;88.82
41573;BME280;27286;47.870;19.006;2022-12-29T08:28:45;99867.66;;;1.26;87.94
41573;BME280;27286;47.870;19.006;2022-12-29T08:31:10;99871.16;;;1.54;86.17
41573;BME280;27286;47.870;19.006;2022-12-29T08:33:36;99865.22;;;2.05;83.99
41573;BME280;27286;47.870;19.006;2022-12-29T08:36:03;99865.19;;;2.33;82.23
41573;BME280;27286;47.870;19.006;2022-12-29T08:38:29;99862.63;;;2.36;81.26
41573;BME280;27286;47.870;19.006;2022-12-29T08:40:55;99863.41;;;2.65;80.05
41573;BME280;27286;47.870;19.006;2022-12-29T08:43:21;99859.06;;;2.84;78.89
41573;BME280;27286;47.870;19.006;2022-12-29T08:45:46;99865.09;;;2.86;78.07
41573;BME280;27286;47.870;19.006;2022-12-29T08:48:12;99870.19;;;2.95;77.76
41573;BME280;27286;47.870;19.006;2022-12-29T08:50:37;99854.72;;;3.08;77.90
41573;BME280;27286;47.870;19.006;2022-12-29T08:53:03;99852.94;;;3.16;77.02
41573;BME280;27286;47.870;19.006;2022-12-29T08:55:28;99846.00;;;3.39;75.73
41573;BME280;27286;47.870;19.006;2022-12-29T08:57:53;99839.78;;;3.68;74.52
41573;BME280;27286;47.870;19.006;2022-12-29T09:00:19;99841.97;;;4.16;73.15
41573;BME280;27286;47.870;19.006;2022-12-29T09:02:46;99840.38;;;6.12;66.10
41573;BME280;27286;47.870;19.006;2022-12-29T09:05:11;99835.06;;;7.88;58.18
41573;BME280;27286;47.870;19.006;2022-12-29T09:07:37;99826.53;;;9.44;53.25
41573;BME280;27286;47.870;19.006;2022-12-29T09:10:03;99819.56;;;10.52;48.95
41573;BME280;27286;47.870;19.006;2022-12-29T09:12:29;99824.84;;;10.99;47.16
41573;BME280;27286;47.870;19.006;2022-12-29T09:14:54;99810.53;;;11.78;44.88
41573;BME280;27286;47.870;19.006;2022-12-29T09:17:20;99815.81;;;11.76;44.15
41573;BME280;27286;47.870;19.006;2022-12-29T09:20:04;99808.06;;;12.17;43.73
41573;BME280;27286;47.870;19.006;2022-12-29T09:22:30;99810.69;;;12.97;41.23
41573;BME280;27286;47.870;19.006;2022-12-29T09:24:55;99809.75;;;12.79;41.56
41573;BME280;27286;47.870;19.006;2022-12-29T09:27:21;99809.56;;;13.02;40.56
41573;BME280;27286;47.870;19.006;2022-12-29T09:29:46;99811.09;;;13.06;40.74
41573;BME280;27286;47.870;19.006;2022-12-29T09:32:11;99798.25;;;13.58;39.92
41573;BME280;27286;47.870;19.006;2022-12-29T09:34:37;99782.94;;;14.04;38.83
41573;BME280;27286;47.870;19.006;2022-12-29T09:37:02;99784.69;;;14.38;37.70
41573;BME280;27286;47.870;19.006;2022-12-29T09:39:28;99778.59;;;14.72;36.75
41573;BME280;27286;47.870;19.006;2022-12-29T09:42:04;99779.84;;;14.98;36.32
41573;BME280;27286;47.870;19.006;2022-12-29T09:47:03;99768.00;;;14.23;37.20
41573;BME280;27286;47.870;19.006;2022-12-29T09:49:43;99769.72;;;11.75;42.67
41573;BME280;27286;47.870;19.006;2022-12-29T09:52:14;99777.75;;;11.70;43.23
41573;BME280;27286;47.870;19.006;2022-12-29T09:55:00;99770.91;;;12.90;40.30
41573;BME280;27286;47.870;19.006;2022-12-29T09:58:03;99762.72;;;13.71;38.65
41573;BME280;27286;47.870;19.006;2022-12-29T10:00:23;99750.72;;;14.36;37.42
41573;BME280;27286;47.870;19.006;2022-12-29T10:02:59;99764.03;;;14.66;36.50
41573;BME280;27286;47.870;19.006;2022-12-29T10:08:20;99755.16;;;15.18;35.18
41573;BME280;27286;47.870;19.006;2022-12-29T10:16:15;99734.59;;;16.17;33.68
41573;BME280;27286;47.870;19.006;2022-12-29T10:24:21;99746.22;;;17.54;31.81
41573;BME280;27286;47.870;19.006;2022-12-29T10:26:51;99730.53;;;17.80;31.50
41573;BME280;27286;47.870;19.006;2022-12-29T10:29:22;99730.63;;;17.78;30.98
41573;BME280;27286;47.870;19.006;2022-12-29T10:31:50;99714.59;;;18.21;30.28
41573;BME280;27286;47.870;19.006;2022-12-29T10:34:28;99714.75;;;17.53;29.87
41573;BME280;27286;47.870;19.006;2022-12-29T10:37:02;99713.88;;;17.79;31.08
41573;BME280;27286;47.870;19.006;2022-12-29T10:39:39;99699.28;;;18.00;30.15
41573;BME280;27286;47.870;19.006;2022-12-29T10:42:27;99702.16;;;18.48;30.31
41573;BME280;27286;47.870;19.006;2022-12-29T10:44:57;99696.59;;;19.02;29.03
41573;BME280;27286;47.870;19.006;2022-12-29T10:47:33;99704.19;;;19.31;28.36
41573;BME280;27286;47.870;19.006;2022-12-29T10:50:00;99703.97;;;19.34;28.52
41573;BME280;27286;47.870;19.006;2022-12-29T10:52:27;99704.16;;;19.67;28.54
41573;BME280;27286;47.870;19.006;2022-12-29T10:54:59;99698.63;;;19.46;27.97
41573;BME280;27286;47.870;19.006;2022-12-29T10:57:41;99699.53;;;18.98;28.12
41573;BME280;27286;47.870;19.006;2022-12-29T11:00:27;99709.19;;;18.86;28.48
41573;BME280;27286;47.870;19.006;2022-12-29T11:06:12;99704.16;;;17.67;30.22
41573;BME280;27286;47.870;19.006;2022-12-29T11:08:49;99699.41;;;18.12;29.92
41573;BME280;27286;47.870;19.006;2022-12-29T11:11:32;99699.22;;;18.15;29.66
41573;BME280;27286;47.870;19.006;2022-12-29T11:16:37;99697.47;;;17.88;29.94
41573;BME280;27286;47.870;19.006;2022-12-29T11:19:03;99703.06;;;17.84;30.12
41573;BME280;27286;47.870;19.006;2022-12-29T11:21:37;99703.78;;;17.59;30.13
41573;BME280;27286;47.870;19.006;2022-12-29T11:24:27;99685.91;;;18.29;29.42
41573;BME280;27286;47.870;19.006;2022-12-29T11:26:55;99682.22;;;18.70;28.80
41573;BME280;27286;47.870;19.006;2022-12-29T11:29:24;99676.59;;;18.61;28.98
41573;BME280;27286;47.870;19.006;2022-12-29T11:31:52;99673.97;;;18.74;28.93
41573;BME280;27286;47.870;19.006;2022-12-29T11:34:34;99666.63;;;19.03;28.22
41573;BME280;27286;47.870;19.006;2022-12-29T11:39:40;99662.31;;;19.85;27.71
41573;BME280;27286;47.870;19.006;2022-12-29T11:42:15;99661.16;;;20.00;27.00
41573;BME280;27286;47.870;19.006;2022-12-29T11:44:47;99660.56;;;20.30;26.89
41573;BME280;27286;47.870;19.006;2022-12-29T11:47:30;99670.44;;;20.39;26.68
41573;BME280;27286;47.870;19.006;2022-12-29T11:50:02;99660.47;;;20.21;26.96
41573;BME280;27286;47.870;19.006;2022-12-29T11:52:31;99651.16;;;19.93;27.14
41573;BME280;27286;47.870;19.006;2022-12-29T11:54:59;99652.09;;;19.21;27.81
41573;BME280;27286;47.870;19.006;2022-12-29T11:57:26;99659.19;;;18.84;28.16
41573;BME280;27286;47.870;19.006;2022-12-29T11:59:56;99654.19;;;18.18;28.57
41573;BME280;27286;47.870;19.006;2022-12-29T12:02:30;99665.50;;;17.01;30.39
41573;BME280;27286;47.870;19.006;2022-12-29T12:05:20;99666.84;;;16.51;31.51
41573;BME280;27286;47.870;19.006;2022-12-29T12:10:57;99640.06;;;15.73;32.90
41573;BME280;27286;47.870;19.006;2022-12-29T12:13:31;99642.50;;;15.76;33.32
41573;BME280;27286;47.870;19.006;2022-12-29T12:16:09;99644.84;;;15.05;33.78
41573;BME280;27286;47.870;19.006;2022-12-29T12:19:02;99642.56;;;14.99;34.20
41573;BME280;27286;47.870;19.006;2022-12-29T12:26:43;99624.03;;;15.18;33.93
41573;BME280;27286;47.870;19.006;2022-12-29T12:29:32;99618.31;;;14.80;34.82
41573;BME280;27286;47.870;19.006;2022-12-29T12:32:08;99626.63;;;15.33;34.08
41573;BME280;27286;47.870;19.006;2022-12-29T12:34:42;99626.19;;;14.31;35.93
41573;BME280;27286;47.870;19.006;2022-12-29T12:43:35;99635.06;;;14.28;36.24
41573;BME280;27286;47.870;19.006;2022-12-29T12:51:38;99624.19;;;14.03;36.79
41573;BME280;27286;47.870;19.006;2022-12-29T12:57:16;99632.75;;;12.46;39.32
41573;BME280;27286;47.870;19.006;2022-12-29T13:02:36;99641.56;;;12.81;39.37
41573;BME280;27286;47.870;19.006;2022-12-29T13:05:30;99632.34;;;12.91;38.98
41573;BME280;27286;47.870;19.006;2022-12-29T13:11:08;99623.63;;;12.36;39.71
41573;BME280;27286;47.870;19.006;2022-12-29T13:13:47;99636.34;;;12.62;39.68
41573;BME280;27286;47.870;19.006;2022-12-29T13:26:47;99644.00;;;12.28;40.63
41573;BME280;27286;47.870;19.006;2022-12-29T13:29:23;99645.38;;;11.97;40.92
41573;BME280;27286;47.870;19.006;2022-12-29T13:40:45;99679.25;;;7.66;52.00
41573;BME280;27286;47.870;19.006;2022-12-29T13:43:15;99686.63;;;7.12;54.32
41573;BME280;27286;47.870;19.006;2022-12-29T13:45:42;99678.03;;;6.31;57.59
41573;BME280;27286;47.870;19.006;2022-12-29T13:50:39;99675.31;;;5.43;60.91
41573;BME280;27286;47.870;19.006;2022-12-29T13:53:15;99674.84;;;5.17;63.16
41573;BME280;27286;47.870;19.006;2022-12-29T13:55:58;99669.38;;;4.79;64.82
41573;BME280;27286;47.870;19.006;2022-12-29T13:58:32;99667.25;;;4.47;66.53
41573;BME280;27286;47.870;19.006;2022-12-29T14:03:48;99664.31;;;4.06;69.09
41573;BME280;27286;47.870;19.006;2022-12-29T14:09:04;99674.19;;;3.64;71.09
41573;BME280;27286;47.870;19.006;2022-12-29T14:11:39;99671.78;;;3.44;72.85
41573;BME280;27286;47.870;19.006;2022-12-29T14:14:23;99654.00;;;3.20;73.16
41573;BME280;27286;47.870;19.006;2022-12-29T14:16:52;99667.84;;;3.04;73.88
41573;BME280;27286;47.870;19.006;2022-12-29T14:19:23;99674.78;;;2.89;74.99
41573;BME280;27286;47.870;19.006;2022-12-29T14:21:51;99671.44;;;2.77;76.36
41573;BME280;27286;47.870;19.006;2022-12-29T14:27:00;99677.53;;;2.57;76.51
41573;BME280;27286;47.870;19.006;2022-12-29T14:31:54;99693.91;;;2.33;77.19
41573;BME280;27286;47.870;19.006;2022-12-29T14:36:58;99680.31;;;1.98;78.30
41573;BME280;27286;47.870;19.006;2022-12-29T14:44:55;99679.53;;;1.64;82.13
41573;BME280;27286;47.870;19.006;2022-12-29T14:49:51;99699.25;;;1.53;82.00
41573;BME280;27286;47.870;19.006;2022-12-29T14:52:23;99702.66;;;1.47;82.77
41573;BME280;27286;47.870;19.006;2022-12-29T14:54:55;99705.22;;;1.29;82.93
41573;BME280;27286;47.870;19.006;2022-12-29T14:57:28;99714.59;;;1.14;82.70
41573;BME280;27286;47.870;19.006;2022-12-29T15:00:13;99707.75;;;0.89;82.68
41573;BME280;27286;47.870;19.006;2022-12-29T15:02:42;99703.44;;;0.70;83.07
41573;BME280;27286;47.870;19.006;2022-12-29T15:05:36;99705.09;;;0.55;82.92
41573;BME280;27286;47.870;19.006;2022-12-29T15:08:05;99695.63;;;0.38;83.41
41573;BME280;27286;47.870;19.006;2022-12-29T15:10:37;99696.44;;;0.34;84.29
41573;BME280;27286;47.870;19.006;2022-12-29T15:13:12;99699.00;;;0.30;85.19
41573;BME280;27286;47.870;19.006;2022-12-29T15:15:40;99697.28;;;0.29;86.44